createdAt,value
2017-07-29T00:02:02.765Z,56.00
2017-07-29T00:04:28.976Z,57.40
2017-07-29T00:06:55.156Z,56.70
2017-07-29T00:09:21.367Z,57.40
2017-07-29T00:11:47.610Z,56.60
2017-07-29T00:14:13.836Z,57.00
2017-07-29T00:16:39.982Z,57.50
2017-07-29T00:19:06.190Z,58.20
2017-07-29T00:21:32.384Z,59.40
2017-07-29T00:23:58.642Z,58.50
2017-07-29T00:26:24.840Z,55.90
2017-07-29T00:28:51.044Z,56.00
2017-07-29T00:31:17.208Z,56.70
2017-07-29T00:33:43.447Z,56.50
2017-07-29T00:36:09.637Z,56.70
2017-07-29T00:38:35.831Z,57.00
2017-07-29T00:41:02.083Z,58.40
2017-07-29T00:43:28.251Z,57.70
2017-07-29T00:45:54.473Z,57.80
2017-07-29T00:48:20.723Z,58.70
2017-07-29T00:50:46.984Z,59.10
2017-07-29T00:53:13.216Z,59.30
2017-07-29T00:55:39.525Z,58.50
2017-07-29T00:58:05.731Z,56.80
2017-07-29T01:00:32.011Z,57.50
2017-07-29T01:02:58.250Z,57.70
2017-07-29T01:05:24.428Z,57.40
2017-07-29T01:07:50.676Z,57.80
2017-07-29T01:10:16.990Z,57.70
2017-07-29T01:12:43.192Z,57.80
2017-07-29T01:15:09.398Z,57.10
2017-07-29T01:17:35.744Z,58.70
2017-07-29T01:20:01.993Z,57.90
2017-07-29T01:22:28.239Z,59.20
2017-07-29T01:24:55.454Z,58.00
2017-07-29T01:27:21.639Z,57.10
2017-07-29T01:29:47.802Z,59.00
2017-07-29T01:32:14.025Z,59.00
2017-07-29T01:34:40.231Z,59.00
2017-07-29T01:37:06.503Z,59.00
2017-07-29T01:39:32.779Z,59.00
2017-07-29T01:41:59.022Z,59.20
2017-07-29T01:44:25.226Z,57.80
2017-07-29T01:46:51.455Z,58.90
2017-07-29T01:49:17.634Z,59.50
2017-07-29T01:51:43.876Z,58.20
2017-07-29T01:54:10.068Z,58.80
2017-07-29T01:56:36.307Z,58.80
2017-07-29T01:59:02.503Z,58.80
2017-07-29T02:01:28.713Z,58.70
2017-07-29T02:03:54.962Z,58.80
2017-07-29T02:06:21.228Z,59.20
2017-07-29T02:08:47.526Z,59.60
2017-07-29T02:11:13.747Z,59.40
2017-07-29T02:13:39.939Z,59.70
2017-07-29T02:16:06.139Z,60.10
2017-07-29T02:18:32.339Z,59.90
2017-07-29T02:20:58.496Z,58.90
2017-07-29T02:23:24.730Z,58.90
2017-07-29T02:25:50.899Z,59.40
2017-07-29T02:28:17.091Z,59.20
2017-07-29T02:30:43.282Z,59.40
2017-07-29T02:33:09.511Z,58.90
2017-07-29T02:35:35.706Z,59.00
2017-07-29T02:38:01.916Z,59.10
2017-07-29T02:40:28.106Z,59.10
2017-07-29T02:42:54.325Z,59.00
2017-07-29T02:45:20.476Z,59.00
2017-07-29T02:47:46.722Z,58.90
2017-07-29T02:50:12.937Z,59.60
2017-07-29T02:52:39.171Z,58.80
2017-07-29T02:55:05.474Z,57.80
2017-07-29T02:57:31.800Z,58.10
2017-07-29T02:59:58.096Z,57.30
2017-07-29T03:02:24.291Z,57.40
2017-07-29T03:04:50.467Z,56.70
2017-07-29T03:07:16.640Z,57.20
2017-07-29T03:09:42.853Z,57.10
2017-07-29T03:12:09.248Z,56.50
2017-07-29T03:14:35.434Z,56.00
2017-07-29T03:17:01.584Z,56.20
2017-07-29T03:19:27.892Z,56.30
2017-07-29T03:21:54.152Z,56.50
2017-07-29T03:24:20.373Z,56.20
2017-07-29T03:26:46.605Z,56.20
2017-07-29T03:29:12.900Z,56.10
2017-07-29T03:31:39.257Z,56.00
2017-07-29T03:34:05.468Z,56.20
2017-07-29T03:36:31.710Z,56.30
2017-07-29T03:38:57.963Z,56.40
2017-07-29T03:41:24.172Z,56.10
2017-07-29T03:43:50.355Z,56.20
2017-07-29T03:46:16.735Z,56.80
2017-07-29T03:48:42.947Z,56.00
2017-07-29T03:51:09.227Z,55.50
2017-07-29T03:53:35.412Z,55.90
2017-07-29T03:56:01.627Z,55.70
2017-07-29T03:58:27.805Z,55.80
2017-07-29T04:00:54.021Z,55.40
2017-07-29T04:03:20.235Z,56.80
2017-07-29T04:05:46.459Z,56.20
2017-07-29T04:08:12.659Z,56.10
2017-07-29T04:10:38.887Z,55.50
2017-07-29T04:13:05.058Z,56.40
2017-07-29T04:15:41.461Z,56.30
2017-07-29T04:18:07.715Z,56.70
2017-07-29T04:20:33.938Z,57.40
2017-07-29T04:23:00.195Z,56.40
2017-07-29T04:25:26.490Z,56.30
2017-07-29T04:27:52.723Z,56.40
2017-07-29T04:30:19.019Z,57.00
2017-07-29T04:32:45.302Z,56.50
2017-07-29T04:35:11.591Z,56.50
2017-07-29T04:37:37.774Z,57.00
2017-07-29T04:40:03.922Z,55.80
2017-07-29T04:42:30.106Z,56.60
2017-07-29T04:44:56.335Z,57.50
2017-07-29T04:47:22.598Z,56.70
2017-07-29T04:49:48.776Z,57.10
2017-07-29T04:52:15.007Z,56.70
2017-07-29T04:54:42.203Z,56.00
2017-07-29T04:57:08.496Z,56.00
2017-07-29T04:59:38.263Z,56.30
2017-07-29T05:02:08.741Z,56.50
2017-07-29T05:04:35.060Z,56.30
2017-07-29T05:07:11.848Z,56.70
2017-07-29T05:09:40.604Z,56.50
2017-07-29T05:12:22.974Z,56.40
2017-07-29T05:15:00.112Z,56.40
2017-07-29T05:17:26.478Z,56.30
2017-07-29T05:19:53.082Z,56.40
2017-07-29T05:22:20.478Z,56.80
2017-07-29T05:24:46.821Z,56.70
2017-07-29T05:27:13.320Z,56.40
2017-07-29T05:29:39.605Z,56.60
2017-07-29T05:32:05.831Z,56.60
2017-07-29T05:34:32.114Z,56.30
2017-07-29T05:36:59.013Z,56.70
2017-07-29T05:39:25.324Z,56.20
2017-07-29T05:41:51.655Z,56.50
2017-07-29T05:44:24.023Z,56.10
2017-07-29T05:49:24.631Z,56.50
2017-07-29T05:51:50.792Z,56.10
2017-07-29T05:54:16.983Z,56.00
2017-07-29T05:56:43.172Z,56.10
2017-07-29T05:59:09.374Z,55.80
2017-07-29T06:01:35.571Z,55.80
2017-07-29T06:04:01.788Z,56.20
2017-07-29T06:06:27.956Z,55.70
2017-07-29T06:08:54.140Z,54.90
2017-07-29T06:11:20.361Z,55.60
2017-07-29T06:13:46.571Z,55.50
2017-07-29T06:16:12.723Z,56.10
2017-07-29T06:18:38.863Z,55.60
2017-07-29T06:21:05.074Z,55.80
2017-07-29T06:23:31.291Z,55.00
2017-07-29T06:25:57.459Z,55.20
2017-07-29T06:28:23.665Z,54.00
2017-07-29T06:30:49.846Z,54.90
2017-07-29T06:33:16.057Z,54.20
2017-07-29T06:35:42.252Z,55.10
2017-07-29T06:38:08.417Z,54.90
2017-07-29T06:40:34.680Z,54.20
2017-07-29T06:43:00.838Z,54.80
2017-07-29T06:45:27.016Z,54.10
2017-07-29T06:47:53.196Z,54.00
2017-07-29T06:50:19.430Z,54.00
2017-07-29T06:52:45.687Z,54.50
2017-07-29T06:55:11.889Z,54.10
2017-07-29T06:57:38.192Z,54.00
2017-07-29T07:00:04.460Z,53.20
2017-07-29T07:02:30.627Z,53.30
2017-07-29T07:04:56.850Z,52.30
2017-07-29T07:07:23.036Z,52.10
2017-07-29T07:09:49.257Z,53.40
2017-07-29T07:12:15.462Z,51.70
2017-07-29T07:14:41.843Z,52.50
2017-07-29T07:17:08.038Z,51.70
2017-07-29T07:19:34.191Z,52.70
2017-07-29T07:22:00.379Z,51.90
2017-07-29T07:24:26.563Z,51.70
2017-07-29T07:26:52.755Z,52.00
2017-07-29T07:29:18.918Z,52.00
2017-07-29T07:31:45.121Z,52.10
2017-07-29T07:34:11.544Z,52.10
2017-07-29T07:36:37.862Z,50.60
2017-07-29T07:39:04.181Z,50.70
2017-07-29T07:41:30.423Z,51.00
2017-07-29T07:43:56.650Z,49.90
2017-07-29T07:46:22.860Z,49.30
2017-07-29T07:48:49.079Z,49.90
2017-07-29T07:51:15.362Z,49.00
2017-07-29T07:53:41.606Z,49.50
2017-07-29T07:56:07.810Z,49.40
2017-07-29T07:58:33.995Z,48.80
2017-07-29T08:01:00.246Z,50.00
2017-07-29T08:03:26.498Z,49.60
2017-07-29T08:05:52.643Z,49.00
2017-07-29T08:08:18.907Z,49.00
2017-07-29T08:10:45.068Z,48.60
2017-07-29T08:13:11.246Z,49.10
2017-07-29T08:15:37.418Z,48.70
2017-07-29T08:18:03.604Z,47.40
2017-07-29T08:20:29.834Z,47.20
2017-07-29T08:22:56.048Z,47.70
2017-07-29T08:25:22.323Z,47.30
2017-07-29T08:27:48.610Z,47.50
2017-07-29T08:30:14.791Z,47.40
2017-07-29T08:32:41.072Z,46.00
2017-07-29T08:35:07.292Z,46.00
2017-07-29T08:37:33.443Z,47.50
2017-07-29T08:39:59.653Z,46.70
2017-07-29T08:42:25.807Z,46.40
2017-07-29T08:44:52.065Z,45.50
2017-07-29T08:47:18.239Z,45.20
2017-07-29T08:49:44.433Z,45.50
2017-07-29T08:52:10.638Z,45.50
2017-07-29T08:54:36.790Z,44.70
2017-07-29T08:57:03.046Z,44.90
2017-07-29T08:59:29.247Z,45.60
2017-07-29T09:01:55.397Z,43.90
2017-07-29T09:04:21.651Z,44.60
2017-07-29T09:06:47.824Z,44.60
2017-07-29T09:09:14.006Z,44.40
2017-07-29T09:11:40.191Z,43.70
2017-07-29T09:14:06.455Z,44.60
2017-07-29T09:16:32.631Z,45.10
2017-07-29T09:18:58.788Z,44.90
2017-07-29T09:21:25.063Z,44.60
2017-07-29T09:23:51.235Z,43.90
2017-07-29T09:26:17.455Z,43.90
2017-07-29T09:28:43.664Z,43.90
2017-07-29T09:31:09.900Z,44.00
2017-07-29T09:33:36.095Z,44.00
2017-07-29T09:36:03.327Z,43.20
2017-07-29T09:38:29.591Z,44.80
2017-07-29T09:40:55.795Z,43.40
2017-07-29T09:43:21.994Z,43.40
2017-07-29T09:45:48.404Z,43.00
2017-07-29T09:48:14.596Z,43.80
2017-07-29T09:50:40.839Z,43.20
2017-07-29T09:53:07.036Z,43.00
2017-07-29T09:55:33.325Z,42.00
2017-07-29T09:57:59.509Z,43.00
2017-07-29T10:00:25.704Z,42.40
2017-07-29T10:02:51.925Z,43.00
2017-07-29T10:05:18.114Z,41.20
2017-07-29T10:07:44.358Z,41.40
2017-07-29T10:10:10.615Z,41.70
2017-07-29T10:12:36.762Z,42.00
2017-07-29T10:15:02.932Z,41.40
2017-07-29T10:17:29.175Z,41.50
2017-07-29T10:19:55.363Z,41.80
2017-07-29T10:22:21.552Z,41.20
2017-07-29T10:24:47.710Z,41.30
2017-07-29T10:27:13.895Z,41.50
2017-07-29T10:29:40.052Z,41.20
2017-07-29T10:32:06.295Z,41.10
2017-07-29T10:34:32.512Z,40.80
2017-07-29T10:36:58.686Z,40.40
2017-07-29T10:39:24.862Z,41.80
2017-07-29T10:41:51.042Z,41.50
2017-07-29T10:44:17.236Z,40.20
2017-07-29T10:46:43.411Z,40.60
2017-07-29T10:49:09.566Z,40.70
2017-07-29T10:51:35.708Z,40.80
2017-07-29T10:54:01.894Z,40.50
2017-07-29T10:56:28.099Z,40.20
2017-07-29T10:58:54.283Z,40.60
2017-07-29T11:01:20.483Z,39.80
2017-07-29T11:03:46.705Z,38.90
2017-07-29T11:06:12.916Z,38.20
2017-07-29T11:08:39.100Z,36.50
2017-07-29T11:11:05.256Z,38.60
2017-07-29T11:13:31.430Z,38.20
2017-07-29T11:15:57.683Z,38.50
2017-07-29T11:18:23.933Z,39.10
2017-07-29T11:20:50.130Z,37.70
2017-07-29T11:23:16.303Z,36.90
2017-07-29T11:25:42.467Z,36.40
2017-07-29T11:28:08.713Z,37.50
2017-07-29T11:30:34.846Z,36.60
2017-07-29T11:33:01.044Z,37.30
2017-07-29T11:35:27.199Z,36.60
2017-07-29T11:37:53.374Z,36.60
2017-07-29T11:40:19.601Z,36.70
2017-07-29T11:42:45.792Z,36.80
2017-07-29T11:45:12.007Z,36.50
2017-07-29T11:47:38.232Z,36.40
2017-07-29T11:50:04.441Z,37.20
2017-07-29T11:52:30.595Z,35.70
2017-07-29T11:54:56.779Z,35.80
2017-07-29T11:57:22.982Z,35.50
2017-07-29T11:59:49.168Z,36.10
2017-07-29T12:02:15.366Z,36.40
2017-07-29T12:04:41.556Z,37.00
2017-07-29T12:07:07.719Z,36.20
2017-07-29T12:09:33.940Z,36.40
2017-07-29T12:12:00.080Z,35.70
2017-07-29T12:14:26.283Z,37.00
2017-07-29T12:16:52.431Z,36.60
2017-07-29T12:19:18.728Z,35.80
2017-07-29T12:21:44.900Z,36.50
2017-07-29T12:24:11.051Z,36.30
2017-07-29T12:26:37.250Z,36.50
2017-07-29T12:29:03.409Z,36.00
2017-07-29T12:31:29.586Z,37.00
2017-07-29T12:33:55.732Z,36.70
2017-07-29T12:36:21.924Z,37.10
2017-07-29T12:38:48.081Z,37.10
2017-07-29T12:41:14.315Z,37.20
2017-07-29T12:43:40.443Z,36.30
2017-07-29T12:46:06.633Z,36.90
2017-07-29T12:48:32.846Z,35.60
2017-07-29T12:50:59.011Z,35.70
2017-07-29T12:53:25.164Z,33.90
2017-07-29T12:55:51.341Z,32.80
2017-07-29T12:58:17.584Z,33.40
2017-07-29T13:00:43.773Z,33.60
2017-07-29T13:03:09.898Z,34.30
2017-07-29T13:05:36.087Z,34.50
2017-07-29T13:08:02.258Z,34.10
2017-07-29T13:10:28.415Z,34.00
2017-07-29T13:12:54.599Z,33.70
2017-07-29T13:15:20.735Z,33.00
2017-07-29T13:17:46.921Z,32.10
2017-07-29T13:20:18.916Z,31.90
2017-07-29T13:22:45.101Z,31.10
2017-07-29T13:25:11.254Z,30.80
2017-07-29T13:27:37.416Z,31.50
2017-07-29T13:30:03.645Z,31.20
2017-07-29T13:32:29.872Z,31.40
2017-07-29T13:34:56.059Z,32.20
2017-07-29T13:37:22.211Z,32.40
2017-07-29T13:39:48.385Z,33.10
2017-07-29T13:42:14.535Z,33.20
2017-07-29T13:44:40.671Z,33.30
2017-07-29T13:47:06.855Z,32.60
2017-07-29T13:49:33.013Z,32.50
2017-07-29T13:51:59.179Z,32.10
2017-07-29T13:54:25.371Z,31.30
2017-07-29T13:56:51.564Z,32.10
2017-07-29T13:59:17.734Z,32.50
2017-07-29T14:01:43.909Z,32.80
2017-07-29T14:04:10.167Z,31.80
2017-07-29T14:06:44.883Z,32.30
2017-07-29T14:09:11.125Z,33.20
2017-07-29T14:11:37.280Z,33.00
2017-07-29T14:14:03.491Z,32.50
2017-07-29T14:16:29.636Z,33.10
2017-07-29T14:18:55.834Z,33.40
2017-07-29T14:21:23.079Z,33.20
2017-07-29T14:23:49.231Z,33.60
2017-07-29T14:26:15.398Z,33.70
2017-07-29T14:28:41.591Z,34.50
2017-07-29T14:31:07.776Z,34.00
2017-07-29T14:33:34.013Z,34.10
2017-07-29T14:36:00.176Z,34.40
2017-07-29T14:38:26.399Z,34.40
2017-07-29T14:40:52.563Z,34.50
2017-07-29T14:43:18.713Z,36.10
2017-07-29T14:45:45.048Z,35.60
2017-07-29T14:48:29.608Z,35.50
2017-07-29T14:50:56.027Z,35.50
2017-07-29T14:53:22.245Z,35.60
2017-07-29T14:55:48.456Z,35.50
2017-07-29T14:58:14.620Z,35.30
2017-07-29T15:00:40.817Z,36.20
2017-07-29T15:03:07.007Z,35.70
2017-07-29T15:05:33.167Z,36.10
2017-07-29T15:08:00.463Z,35.20
2017-07-29T15:10:26.644Z,36.10
2017-07-29T15:12:52.820Z,35.80
2017-07-29T15:15:18.998Z,35.10
2017-07-29T15:17:45.196Z,36.20
2017-07-29T15:20:11.371Z,36.40
2017-07-29T15:22:37.527Z,36.40
2017-07-29T15:25:03.796Z,36.50
2017-07-29T15:27:29.983Z,37.70
2017-07-29T15:29:56.155Z,36.20
2017-07-29T15:32:22.336Z,36.20
2017-07-29T15:34:48.572Z,36.40
2017-07-29T15:37:14.746Z,36.40
2017-07-29T15:39:40.927Z,36.30
2017-07-29T15:42:08.193Z,37.40
2017-07-29T15:44:34.464Z,37.40
2017-07-29T15:47:00.626Z,37.40
2017-07-29T15:49:26.791Z,36.80
2017-07-29T15:51:52.959Z,37.20
2017-07-29T15:54:19.912Z,37.30
2017-07-29T15:56:46.100Z,37.30
2017-07-29T15:59:12.287Z,37.30
2017-07-29T16:01:38.483Z,37.30
2017-07-29T16:04:05.676Z,37.20
2017-07-29T16:06:31.858Z,37.20
2017-07-29T16:08:58.036Z,37.20
2017-07-29T16:11:24.365Z,37.20
2017-07-29T16:13:50.564Z,37.20
2017-07-29T16:16:16.749Z,37.20
2017-07-29T16:18:42.931Z,37.20
2017-07-29T16:21:10.122Z,37.20
2017-07-29T16:23:36.379Z,37.20
2017-07-29T16:26:02.560Z,37.20
2017-07-29T16:28:28.724Z,37.80
2017-07-29T16:31:03.881Z,37.10
2017-07-29T16:33:30.057Z,37.70
2017-07-29T16:35:56.231Z,37.10
2017-07-29T16:38:22.458Z,37.70
2017-07-29T16:40:48.674Z,37.10
2017-07-29T16:43:14.851Z,37.00
2017-07-29T16:45:41.036Z,37.70
2017-07-29T16:48:07.257Z,37.60
2017-07-29T16:50:33.427Z,37.80
2017-07-29T16:52:59.623Z,38.10
2017-07-29T16:55:25.820Z,37.70
2017-07-29T16:57:52.043Z,37.00
2017-07-29T17:00:18.206Z,38.50
2017-07-29T17:02:44.435Z,39.10
2017-07-29T17:05:10.599Z,38.50
2017-07-29T17:07:36.760Z,37.00
2017-07-29T17:10:02.905Z,38.40
2017-07-29T17:12:40.291Z,37.90
2017-07-29T17:15:06.451Z,38.40
2017-07-29T17:17:32.638Z,38.20
2017-07-29T17:19:58.828Z,38.70
2017-07-29T17:22:25.008Z,38.40
2017-07-29T17:24:51.229Z,38.50
2017-07-29T17:27:17.416Z,38.10
2017-07-29T17:29:43.613Z,38.60
2017-07-29T17:32:09.791Z,39.10
2017-07-29T17:34:35.974Z,39.40
2017-07-29T17:37:02.139Z,38.80
2017-07-29T17:39:28.366Z,39.10
2017-07-29T17:41:54.616Z,39.40
2017-07-29T17:44:20.791Z,39.50
2017-07-29T17:46:46.943Z,39.00
2017-07-29T17:49:13.123Z,39.70
2017-07-29T17:51:39.283Z,39.30
2017-07-29T17:54:05.454Z,40.20
2017-07-29T17:56:31.626Z,39.50
2017-07-29T17:58:57.793Z,39.10
2017-07-29T18:01:23.977Z,39.20
2017-07-29T18:03:50.139Z,39.90
2017-07-29T18:06:16.333Z,39.90
2017-07-29T18:08:42.505Z,39.40
2017-07-29T18:11:08.678Z,40.30
2017-07-29T18:13:35.055Z,40.40
2017-07-29T18:16:01.220Z,39.80
2017-07-29T18:18:27.631Z,40.40
2017-07-29T18:20:53.825Z,41.50
2017-07-29T18:23:19.976Z,40.80
2017-07-29T18:25:46.164Z,41.10
2017-07-29T18:28:12.335Z,41.50
2017-07-29T18:30:38.536Z,43.00
2017-07-29T18:35:57.462Z,43.60
2017-07-29T18:38:23.641Z,44.70
2017-07-29T18:40:56.707Z,46.60
2017-07-29T18:43:23.018Z,46.00
2017-07-29T18:45:55.467Z,45.50
2017-07-29T18:48:25.605Z,46.20
2017-07-29T18:50:51.836Z,46.50
2017-07-29T18:53:24.276Z,47.00
2017-07-29T18:55:55.152Z,46.40
2017-07-29T18:58:21.385Z,46.70
2017-07-29T19:00:48.717Z,46.30
2017-07-29T19:08:55.212Z,48.00
2017-07-29T19:11:24.739Z,48.40
2017-07-29T19:13:54.948Z,49.30
2017-07-29T19:16:24.324Z,49.20
2017-07-29T19:18:55.157Z,48.10
2017-07-29T19:21:21.443Z,49.30
2017-07-29T19:23:47.973Z,49.70
2017-07-29T19:26:24.993Z,49.20
2017-07-29T19:28:55.509Z,49.20
2017-07-29T19:31:25.719Z,49.80
2017-07-29T19:33:56.284Z,49.80
2017-07-29T19:36:22.685Z,50.30
2017-07-29T19:38:55.296Z,49.00
2017-07-29T19:41:25.630Z,49.10
2017-07-29T19:43:52.106Z,48.80
2017-07-29T19:46:18.500Z,49.60
2017-07-29T19:48:58.023Z,48.70
2017-07-29T19:51:24.769Z,49.40
2017-07-29T19:53:57.171Z,48.10
2017-07-29T19:56:23.682Z,49.70
2017-07-29T19:58:50.151Z,51.40
2017-07-29T20:01:16.629Z,51.00
2017-07-29T20:03:49.165Z,50.80
2017-07-29T20:06:15.599Z,52.10
2017-07-29T20:11:21.925Z,51.10
2017-07-29T20:13:53.831Z,51.70
2017-07-29T20:16:22.689Z,53.00
2017-07-29T20:18:53.503Z,51.80
2017-07-29T20:21:20.139Z,52.40
2017-07-29T20:23:47.318Z,52.80
2017-07-29T20:26:21.108Z,52.70
2017-07-29T20:28:47.745Z,51.30
2017-07-29T20:31:16.892Z,53.50
2017-07-29T20:33:43.403Z,52.60
2017-07-29T20:36:10.015Z,54.00
2017-07-29T20:38:36.471Z,54.20
2017-07-29T20:47:11.866Z,45.10
2017-07-29T20:49:38.009Z,45.40
2017-07-29T20:53:54.428Z,49.40
2017-07-29T20:56:20.624Z,51.80
2017-07-29T20:58:46.835Z,52.60
2017-07-29T21:01:13.051Z,53.80
2017-07-29T21:03:39.284Z,53.70
2017-07-29T21:06:05.502Z,53.70
2017-07-29T21:08:31.800Z,54.20
2017-07-29T21:10:58.046Z,54.70
2017-07-29T21:13:24.218Z,54.80
2017-07-29T21:15:50.394Z,55.00
2017-07-29T22:25:10.669Z,56.70
2017-07-29T22:27:36.905Z,57.30
2017-07-29T22:30:03.243Z,57.20
2017-07-29T22:32:29.439Z,57.40
2017-07-29T22:34:56.319Z,58.20
2017-07-29T22:37:22.502Z,58.10
2017-07-29T22:39:48.642Z,57.80
2017-07-29T22:42:14.821Z,57.70
2017-07-29T22:44:40.976Z,57.30
2017-07-29T22:47:07.174Z,57.50
2017-07-29T22:49:33.330Z,57.30
2017-07-29T22:51:59.614Z,57.30
2017-07-29T22:54:25.780Z,57.80
2017-07-29T22:56:51.947Z,57.90
2017-07-29T22:59:18.136Z,57.90
2017-07-29T23:01:44.343Z,58.20
2017-07-29T23:04:10.564Z,59.10
2017-07-29T23:06:36.719Z,58.90
2017-07-29T23:09:02.952Z,58.80
2017-07-29T23:11:29.860Z,59.10
2017-07-29T23:13:56.010Z,59.10
2017-07-29T23:16:22.208Z,58.80
